sensor_id;sensor_type;location;lat;lon;timestamp;pressure;altitude;pressure_sealevel;temperature;humidity
44531;BME280;30240;47.418;0.700;2023-04-05T00:00:09;101135.77880859375;;;4.9;74.26
44531;BME280;30240;47.418;0.700;2023-04-05T00:02:33;101143.24951171875;;;4.7;74.72
44531;BME280;30240;47.418;0.700;2023-04-05T00:04:58;101141.9677734375;;;4.6;75.02
44531;BME280;30240;47.418;0.700;2023-04-05T00:07:24;101152.54516601562;;;4.62;75.08
44531;BME280;30240;47.418;0.700;2023-04-05T00:09:48;101152.54516601562;;;4.62;75.08
44531;BME280;30240;47.418;0.700;2023-04-05T00:12:13;101151.55639648438;;;4.72;75.07
44531;BME280;30240;47.418;0.700;2023-04-05T00:14:39;101150.22583007812;;;4.73;74.92
44531;BME280;30240;47.418;0.700;2023-04-05T00:17:04;101155.2978515625;;;4.81;74.61
44531;BME280;30240;47.418;0.700;2023-04-05T00:19:28;101150.53100585938;;;4.73;74.7
44531;BME280;30240;47.418;0.700;2023-04-05T00:21:54;101150.53100585938;;;4.73;74.7
44531;BME280;30240;47.418;0.700;2023-04-05T00:24:18;101145.23315429688;;;4.66;74.66
44531;BME280;30240;47.418;0.700;2023-04-05T00:26:43;101141.259765625;;;4.56;74.79
44531;BME280;30240;47.418;0.700;2023-04-05T00:29:08;101140.13061523438;;;4.49;75.0
44531;BME280;30240;47.418;0.700;2023-04-05T00:31:33;101145.34301757812;;;4.58;75.19
44531;BME280;30240;47.418;0.700;2023-04-05T00:33:59;101145.34301757812;;;4.58;75.19
44531;BME280;30240;47.418;0.700;2023-04-05T00:36:23;101143.06030273438;;;4.55;75.05
44531;BME280;30240;47.418;0.700;2023-04-05T00:38:48;101141.98608398438;;;4.55;74.82
44531;BME280;30240;47.418;0.700;2023-04-05T00:41:14;101142.3828125;;;4.52;74.8
44531;BME280;30240;47.418;0.700;2023-04-05T00:43:39;101145.40405273438;;;4.58;74.95
44531;BME280;30240;47.418;0.700;2023-04-05T00:46:04;101145.40405273438;;;4.58;74.95
44531;BME280;30240;47.418;0.700;2023-04-05T00:48:29;101141.10107421875;;;4.42;74.98
44531;BME280;30240;47.418;0.700;2023-04-05T00:50:54;101139.09301757812;;;4.38;75.04
44531;BME280;30240;47.418;0.700;2023-04-05T00:53:19;101134.92431640625;;;4.24;75.25
44531;BME280;30240;47.418;0.700;2023-04-05T00:55:44;101135.96801757812;;;4.33;75.27
44531;BME280;30240;47.418;0.700;2023-04-05T00:58:09;101135.96801757812;;;4.33;75.27
44531;BME280;30240;47.418;0.700;2023-04-05T01:00:35;101135.77880859375;;;4.34;74.76
44531;BME280;30240;47.418;0.700;2023-04-05T01:02:59;101136.85302734375;;;4.3;74.84
44531;BME280;30240;47.418;0.700;2023-04-05T01:05:34;101141.46728515625;;;4.31;75.36
44531;BME280;30240;47.418;0.700;2023-04-05T01:07:53;101136.474609375;;;4.24;74.97
44531;BME280;30240;47.418;0.700;2023-04-05T01:10:16;101136.474609375;;;4.24;74.97
44531;BME280;30240;47.418;0.700;2023-04-05T01:12:39;101138.36059570312;;;4.2;75.15
44531;BME280;30240;47.418;0.700;2023-04-05T01:15:04;101134.1796875;;;4.14;74.97
44531;BME280;30240;47.418;0.700;2023-04-05T01:17:29;101132.40356445312;;;4.27;75.0
44531;BME280;30240;47.418;0.700;2023-04-05T01:19:55;101121.47827148438;;;4.24;74.81
44531;BME280;30240;47.418;0.700;2023-04-05T01:22:29;101114.5263671875;;;4.27;74.61
44531;BME280;30240;47.418;0.700;2023-04-05T01:22:40;101114.5263671875;;;4.27;74.61
44531;BME280;30240;47.418;0.700;2023-04-05T01:22:49;101114.5263671875;;;4.27;74.61
44531;BME280;30240;47.418;0.700;2023-04-05T01:24:50;101114.5263671875;;;4.27;74.61
44531;BME280;30240;47.418;0.700;2023-04-05T01:25:01;101114.5263671875;;;4.27;74.61
44531;BME280;30240;47.418;0.700;2023-04-05T01:25:09;101114.5263671875;;;4.27;74.61
44531;BME280;30240;47.418;0.700;2023-04-05T01:25:19;101114.5263671875;;;4.27;74.61
44531;BME280;30240;47.418;0.700;2023-04-05T01:27:13;101113.76342773438;;;4.31;74.07
44531;BME280;30240;47.418;0.700;2023-04-05T01:29:46;101106.39038085938;;;4.37;73.78
44531;BME280;30240;47.418;0.700;2023-04-05T01:32:01;101099.29809570312;;;4.33;73.76
44531;BME280;30240;47.418;0.700;2023-04-05T01:34:28;101096.142578125;;;4.38;73.61
44531;BME280;30240;47.418;0.700;2023-04-05T01:36:53;101096.142578125;;;4.38;73.61
44531;BME280;30240;47.418;0.700;2023-04-05T01:39:16;101099.27978515625;;;4.45;73.7
44531;BME280;30240;47.418;0.700;2023-04-05T01:41:39;101095.03173828125;;;4.28;73.77
44531;BME280;30240;47.418;0.700;2023-04-05T01:44:04;101096.8994140625;;;4.24;73.96
44531;BME280;30240;47.418;0.700;2023-04-05T01:46:29;101083.00170898438;;;4.24;73.99
44531;BME280;30240;47.418;0.700;2023-04-05T01:48:54;101083.00170898438;;;4.24;73.99
44531;BME280;30240;47.418;0.700;2023-04-05T01:51:18;101072.79663085938;;;4.31;73.9
44531;BME280;30240;47.418;0.700;2023-04-05T01:53:43;101075.07934570312;;;4.38;73.62
44531;BME280;30240;47.418;0.700;2023-04-05T01:56:08;101072.37548828125;;;4.31;73.96
44531;BME280;30240;47.418;0.700;2023-04-05T01:58:34;101068.10913085938;;;4.34;73.92
44531;BME280;30240;47.418;0.700;2023-04-05T02:00:58;101068.10913085938;;;4.34;73.92
44531;BME280;30240;47.418;0.700;2023-04-05T02:03:24;101069.4091796875;;;4.24;73.91
44531;BME280;30240;47.418;0.700;2023-04-05T02:05:49;101066.29638671875;;;4.2;74.28
44531;BME280;30240;47.418;0.700;2023-04-05T02:08:14;101057.70263671875;;;4.17;74.32
44531;BME280;30240;47.418;0.700;2023-04-05T02:10:39;101059.78393554688;;;4.16;74.32
44531;BME280;30240;47.418;0.700;2023-04-05T02:13:03;101059.78393554688;;;4.16;74.32
44531;BME280;30240;47.418;0.700;2023-04-05T02:15:28;101061.48681640625;;;4.11;74.44
44531;BME280;30240;47.418;0.700;2023-04-05T02:17:54;101057.87353515625;;;4.11;74.5
44531;BME280;30240;47.418;0.700;2023-04-05T02:20:18;101062.07885742188;;;4.06;74.58
44531;BME280;30240;47.418;0.700;2023-04-05T02:22:44;101060.3759765625;;;4.03;75.04
44531;BME280;30240;47.418;0.700;2023-04-05T02:25:09;101060.3759765625;;;4.03;75.04
44531;BME280;30240;47.418;0.700;2023-04-05T02:27:34;101060.79711914062;;;3.92;74.88
44531;BME280;30240;47.418;0.700;2023-04-05T02:29:58;101062.70141601562;;;3.93;75.69
44531;BME280;30240;47.418;0.700;2023-04-05T02:32:24;101065.51513671875;;;3.83;75.35
44531;BME280;30240;47.418;0.700;2023-04-05T02:34:48;101069.67163085938;;;3.92;74.94
44531;BME280;30240;47.418;0.700;2023-04-05T02:37:14;101069.67163085938;;;3.92;74.94
44531;BME280;30240;47.418;0.700;2023-04-05T02:39:38;101070.75805664062;;;3.72;75.46
44531;BME280;30240;47.418;0.700;2023-04-05T02:42:04;101070.88012695312;;;3.67;75.79
44531;BME280;30240;47.418;0.700;2023-04-05T02:44:28;101070.2392578125;;;3.71;75.92
44531;BME280;30240;47.418;0.700;2023-04-05T02:46:53;101071.17309570312;;;3.51;76.28
44531;BME280;30240;47.418;0.700;2023-04-05T02:49:19;101067.5048828125;;;3.43;76.67
44531;BME280;30240;47.418;0.700;2023-04-05T02:51:43;101067.5048828125;;;3.43;76.67
44531;BME280;30240;47.418;0.700;2023-04-05T02:54:09;101068.56079101562;;;3.48;77.23
44531;BME280;30240;47.418;0.700;2023-04-05T02:56:34;101071.2646484375;;;3.27;77.19
44531;BME280;30240;47.418;0.700;2023-04-05T02:58:58;101064.48974609375;;;3.17;77.26
44531;BME280;30240;47.418;0.700;2023-04-05T03:01:24;101065.2587890625;;;3.3;77.36
44531;BME280;30240;47.418;0.700;2023-04-05T03:03:48;101065.2587890625;;;3.3;77.36
44531;BME280;30240;47.418;0.700;2023-04-05T03:06:13;101061.669921875;;;3.2;77.34
44531;BME280;30240;47.418;0.700;2023-04-05T03:08:40;101065.20385742188;;;3.2;77.43
44531;BME280;30240;47.418;0.700;2023-04-05T03:11:04;101065.185546875;;;2.95;77.58
44531;BME280;30240;47.418;0.700;2023-04-05T03:13:28;101067.07763671875;;;2.85;78.0
44531;BME280;30240;47.418;0.700;2023-04-05T03:15:53;101067.07763671875;;;2.85;78.0
44531;BME280;30240;47.418;0.700;2023-04-05T03:18:19;101068.85986328125;;;2.62;78.45
44531;BME280;30240;47.418;0.700;2023-04-05T03:20:43;101070.1416015625;;;2.61;78.38
44531;BME280;30240;47.418;0.700;2023-04-05T03:23:09;101070.4345703125;;;2.62;78.7
44531;BME280;30240;47.418;0.700;2023-04-05T03:25:34;101068.78662109375;;;2.6;78.58
44531;BME280;30240;47.418;0.700;2023-04-05T03:27:58;101068.78662109375;;;2.6;78.58
44531;BME280;30240;47.418;0.700;2023-04-05T03:30:23;101073.35815429688;;;2.67;78.37
44531;BME280;30240;47.418;0.700;2023-04-05T03:32:48;101072.91259765625;;;2.71;78.41
44531;BME280;30240;47.418;0.700;2023-04-05T03:35:14;101073.82202148438;;;2.62;78.38
44531;BME280;30240;47.418;0.700;2023-04-05T03:37:39;101072.95532226562;;;2.65;78.2
44531;BME280;30240;47.418;0.700;2023-04-05T03:40:04;101072.95532226562;;;2.65;78.2
44531;BME280;30240;47.418;0.700;2023-04-05T03:42:28;101070.78247070312;;;2.78;78.09
44531;BME280;30240;47.418;0.700;2023-04-05T03:44:53;101069.28100585938;;;2.7;77.9
44531;BME280;30240;47.418;0.700;2023-04-05T03:47:18;101075.6103515625;;;2.62;78.29
44531;BME280;30240;47.418;0.700;2023-04-05T03:49:43;101081.16455078125;;;2.54;78.35
44531;BME280;30240;47.418;0.700;2023-04-05T03:52:08;101081.16455078125;;;2.54;78.35
44531;BME280;30240;47.418;0.700;2023-04-05T03:54:33;101079.43725585938;;;2.5;78.37
44531;BME280;30240;47.418;0.700;2023-04-05T03:56:58;101076.06811523438;;;2.26;78.69
44531;BME280;30240;47.418;0.700;2023-04-05T03:59:23;101073.828125;;;2.28;79.1
44531;BME280;30240;47.418;0.700;2023-04-05T04:01:49;101066.26586914062;;;2.3;78.94
44531;BME280;30240;47.418;0.700;2023-04-05T04:04:13;101066.26586914062;;;2.3;78.94
44531;BME280;30240;47.418;0.700;2023-04-05T04:06:38;101066.73583984375;;;2.22;78.98
44531;BME280;30240;47.418;0.700;2023-04-05T04:09:03;101064.53857421875;;;2.39;78.79
44531;BME280;30240;47.418;0.700;2023-04-05T04:11:29;101068.14575195312;;;2.26;78.81
44531;BME280;30240;47.418;0.700;2023-04-05T04:13:53;101059.48486328125;;;2.19;78.98
44531;BME280;30240;47.418;0.700;2023-04-05T04:16:18;101059.48486328125;;;2.19;78.98
44531;BME280;30240;47.418;0.700;2023-04-05T04:18:43;101061.54174804688;;;2.25;79.0
44531;BME280;30240;47.418;0.700;2023-04-05T04:21:08;101054.07104492188;;;2.22;78.81
44531;BME280;30240;47.418;0.700;2023-04-05T04:23:33;101052.1240234375;;;2.21;78.72
44531;BME280;30240;47.418;0.700;2023-04-05T04:25:59;101044.78759765625;;;2.11;78.77
44531;BME280;30240;47.418;0.700;2023-04-05T04:28:24;101047.36938476562;;;2.21;78.81
44531;BME280;30240;47.418;0.700;2023-04-05T04:30:48;101047.36938476562;;;2.21;78.81
44531;BME280;30240;47.418;0.700;2023-04-05T04:33:13;101049.3408203125;;;2.21;78.78
44531;BME280;30240;47.418;0.700;2023-04-05T04:35:38;101046.78344726562;;;2.09;78.92
44531;BME280;30240;47.418;0.700;2023-04-05T04:38:04;101045.93505859375;;;2.07;79.11
44531;BME280;30240;47.418;0.700;2023-04-05T04:40:30;101046.71020507812;;;2.28;78.73
44531;BME280;30240;47.418;0.700;2023-04-05T04:42:54;101046.71020507812;;;2.28;78.73
44531;BME280;30240;47.418;0.700;2023-04-05T04:45:19;101048.73657226562;;;2.34;78.61
44531;BME280;30240;47.418;0.700;2023-04-05T04:47:44;101048.193359375;;;2.47;78.9
44531;BME280;30240;47.418;0.700;2023-04-05T04:50:09;101046.89331054688;;;2.43;78.47
44531;BME280;30240;47.418;0.700;2023-04-05T04:52:33;101053.86962890625;;;2.21;78.61
44531;BME280;30240;47.418;0.700;2023-04-05T04:54:58;101053.86962890625;;;2.21;78.61
44531;BME280;30240;47.418;0.700;2023-04-05T04:57:23;101048.32763671875;;;2.29;78.82
44531;BME280;30240;47.418;0.700;2023-04-05T04:59:48;101046.93603515625;;;2.33;78.69
44531;BME280;30240;47.418;0.700;2023-04-05T05:02:13;101041.98608398438;;;2.15;78.85
44531;BME280;30240;47.418;0.700;2023-04-05T05:04:38;101037.78686523438;;;2.02;79.13
44531;BME280;30240;47.418;0.700;2023-04-05T05:07:03;101037.78686523438;;;2.02;79.13
44531;BME280;30240;47.418;0.700;2023-04-05T05:09:29;101038.41552734375;;;2.05;79.47
44531;BME280;30240;47.418;0.700;2023-04-05T05:11:54;101044.35424804688;;;2.07;79.34
44531;BME280;30240;47.418;0.700;2023-04-05T05:14:18;101045.90454101562;;;2.08;79.43
44531;BME280;30240;47.418;0.700;2023-04-05T05:16:43;101046.60034179688;;;2.08;79.26
44531;BME280;30240;47.418;0.700;2023-04-05T05:19:08;101046.60034179688;;;2.08;79.26
44531;BME280;30240;47.418;0.700;2023-04-05T05:21:33;101044.15893554688;;;2.18;79.22
44531;BME280;30240;47.418;0.700;2023-04-05T05:23:58;101052.00805664062;;;2.09;79.41
44531;BME280;30240;47.418;0.700;2023-04-05T05:26:23;101063.44604492188;;;1.98;79.49
44531;BME280;30240;47.418;0.700;2023-04-05T05:28:48;101058.68530273438;;;1.95;79.86
44531;BME280;30240;47.418;0.700;2023-04-05T05:31:13;101058.68530273438;;;1.95;79.86
44531;BME280;30240;47.418;0.700;2023-04-05T05:33:38;101061.66381835938;;;2.01;79.65
44531;BME280;30240;47.418;0.700;2023-04-05T05:36:04;101059.2529296875;;;1.97;79.47
44531;BME280;30240;47.418;0.700;2023-04-05T05:38:28;101058.30688476562;;;2.14;79.55
44531;BME280;30240;47.418;0.700;2023-04-05T05:40:54;101064.12353515625;;;2.15;79.3
44531;BME280;30240;47.418;0.700;2023-04-05T05:43:18;101064.12353515625;;;2.15;79.3
44531;BME280;30240;47.418;0.700;2023-04-05T05:45:43;101065.71655273438;;;2.12;79.1
44531;BME280;30240;47.418;0.700;2023-04-05T05:48:08;101072.0947265625;;;2.26;79.15
44531;BME280;30240;47.418;0.700;2023-04-05T05:50:33;101070.78247070312;;;2.29;78.99
44531;BME280;30240;47.418;0.700;2023-04-05T05:52:58;101076.33056640625;;;2.14;78.77
44531;BME280;30240;47.418;0.700;2023-04-05T05:55:23;101071.85668945312;;;2.28;79.04
44531;BME280;30240;47.418;0.700;2023-04-05T05:57:48;101071.85668945312;;;2.28;79.04
44531;BME280;30240;47.418;0.700;2023-04-05T06:00:14;101075.54931640625;;;2.46;78.7
44531;BME280;30240;47.418;0.700;2023-04-05T06:02:38;101079.66918945312;;;2.5;78.46
44531;BME280;30240;47.418;0.700;2023-04-05T06:05:04;101079.45556640625;;;2.64;77.78
44531;BME280;30240;47.418;0.700;2023-04-05T06:07:28;101082.45239257812;;;2.64;78.11
44531;BME280;30240;47.418;0.700;2023-04-05T06:09:53;101082.45239257812;;;2.64;78.11
44531;BME280;30240;47.418;0.700;2023-04-05T06:12:19;101082.95288085938;;;2.6;77.82
44531;BME280;30240;47.418;0.700;2023-04-05T06:14:43;101082.34252929688;;;2.93;77.42
44531;BME280;30240;47.418;0.700;2023-04-05T06:17:08;101081.8115234375;;;3.0;77.24
44531;BME280;30240;47.418;0.700;2023-04-05T06:19:34;101076.6845703125;;;2.87;77.18
44531;BME280;30240;47.418;0.700;2023-04-05T06:21:58;101076.6845703125;;;2.87;77.18
44531;BME280;30240;47.418;0.700;2023-04-05T06:24:23;101077.8564453125;;;3.22;77.2
44531;BME280;30240;47.418;0.700;2023-04-05T06:26:49;101079.27856445312;;;3.47;76.58
44531;BME280;30240;47.418;0.700;2023-04-05T06:29:13;101072.95532226562;;;3.62;75.94
44531;BME280;30240;47.418;0.700;2023-04-05T06:31:38;101078.30200195312;;;3.78;76.32
44531;BME280;30240;47.418;0.700;2023-04-05T06:34:03;101078.30200195312;;;3.78;76.32
44531;BME280;30240;47.418;0.700;2023-04-05T06:36:29;101076.87377929688;;;3.92;75.33
44531;BME280;30240;47.418;0.700;2023-04-05T06:38:54;101073.54125976562;;;4.03;74.94
44531;BME280;30240;47.418;0.700;2023-04-05T06:41:18;101062.72583007812;;;4.2;74.39
44531;BME280;30240;47.418;0.700;2023-04-05T06:43:43;101067.82836914062;;;4.27;74.23
44531;BME280;30240;47.418;0.700;2023-04-05T06:46:09;101067.82836914062;;;4.27;74.23
44531;BME280;30240;47.418;0.700;2023-04-05T06:48:33;101066.2353515625;;;4.34;73.87
44531;BME280;30240;47.418;0.700;2023-04-05T06:50:59;101066.46728515625;;;4.56;72.92
44531;BME280;30240;47.418;0.700;2023-04-05T06:53:24;101071.34399414062;;;4.51;72.61
44531;BME280;30240;47.418;0.700;2023-04-05T06:55:49;101071.29516601562;;;4.72;72.56
44531;BME280;30240;47.418;0.700;2023-04-05T06:58:13;101071.29516601562;;;4.72;72.56
44531;BME280;30240;47.418;0.700;2023-04-05T07:00:38;101073.59619140625;;;4.9;72.73
44531;BME280;30240;47.418;0.700;2023-04-05T07:03:03;101068.51806640625;;;4.93;72.39
44531;BME280;30240;47.418;0.700;2023-04-05T07:05:28;101065.93627929688;;;5.1;72.38
44531;BME280;30240;47.418;0.700;2023-04-05T07:07:53;101065.85083007812;;;5.5;71.61
44531;BME280;30240;47.418;0.700;2023-04-05T07:10:18;101065.85083007812;;;5.5;71.61
44531;BME280;30240;47.418;0.700;2023-04-05T07:12:44;101068.4814453125;;;5.61;70.65
44531;BME280;30240;47.418;0.700;2023-04-05T07:15:09;101057.58056640625;;;5.9;71.11
44531;BME280;30240;47.418;0.700;2023-04-05T07:17:33;101057.55615234375;;;6.01;69.92
44531;BME280;30240;47.418;0.700;2023-04-05T07:19:58;101056.71997070312;;;6.2;69.03
44531;BME280;30240;47.418;0.700;2023-04-05T07:22:23;101056.71997070312;;;6.2;69.03
44531;BME280;30240;47.418;0.700;2023-04-05T07:24:48;101055.93872070312;;;6.82;68.04
44531;BME280;30240;47.418;0.700;2023-04-05T07:27:14;101050.50048828125;;;7.78;66.77
44531;BME280;30240;47.418;0.700;2023-04-05T07:29:39;101051.23291015625;;;8.13;65.02
44531;BME280;30240;47.418;0.700;2023-04-05T07:32:04;101048.16284179688;;;8.28;63.14
44531;BME280;30240;47.418;0.700;2023-04-05T07:34:29;101049.53002929688;;;8.17;63.15
44531;BME280;30240;47.418;0.700;2023-04-05T07:36:53;101049.53002929688;;;8.17;63.15
44531;BME280;30240;47.418;0.700;2023-04-05T07:39:18;101040.9423828125;;;8.18;62.47
44531;BME280;30240;47.418;0.700;2023-04-05T07:41:43;101040.48461914062;;;8.92;61.29
44531;BME280;30240;47.418;0.700;2023-04-05T07:44:09;101037.646484375;;;8.06;62.26
44531;BME280;30240;47.418;0.700;2023-04-05T07:46:34;101039.2578125;;;7.94;62.17
44531;BME280;30240;47.418;0.700;2023-04-05T07:48:58;101039.2578125;;;7.94;62.17
44531;BME280;30240;47.418;0.700;2023-04-05T07:51:23;101033.8134765625;;;8.94;62.78
44531;BME280;30240;47.418;0.700;2023-04-05T07:53:48;101030.35278320312;;;10.39;58.26
44531;BME280;30240;47.418;0.700;2023-04-05T07:56:13;101032.28759765625;;;9.74;57.42
44531;BME280;30240;47.418;0.700;2023-04-05T07:58:39;101028.28369140625;;;9.7;58.18
44531;BME280;30240;47.418;0.700;2023-04-05T08:01:04;101028.28369140625;;;9.7;58.18
44531;BME280;30240;47.418;0.700;2023-04-05T08:03:29;101033.59375;;;10.08;59.41
44531;BME280;30240;47.418;0.700;2023-04-05T08:05:53;101034.07592773438;;;11.26;55.85
44531;BME280;30240;47.418;0.700;2023-04-05T08:08:20;101033.935546875;;;11.22;54.89
44531;BME280;30240;47.418;0.700;2023-04-05T08:10:43;101033.94775390625;;;10.12;57.58
44531;BME280;30240;47.418;0.700;2023-04-05T08:13:09;101033.94775390625;;;10.12;57.58
44531;BME280;30240;47.418;0.700;2023-04-05T08:15:34;101037.21923828125;;;10.92;56.38
44531;BME280;30240;47.418;0.700;2023-04-05T08:17:58;101040.771484375;;;11.78;53.03
44531;BME280;30240;47.418;0.700;2023-04-05T08:20:23;101036.57836914062;;;11.06;54.54
44531;BME280;30240;47.418;0.700;2023-04-05T08:22:48;101036.77978515625;;;11.87;53.31
44531;BME280;30240;47.418;0.700;2023-04-05T08:25:13;101036.77978515625;;;11.87;53.31
44531;BME280;30240;47.418;0.700;2023-04-05T08:27:39;101037.12768554688;;;11.72;52.8
44531;BME280;30240;47.418;0.700;2023-04-05T08:30:04;101036.16943359375;;;11.28;53.09
44531;BME280;30240;47.418;0.700;2023-04-05T08:32:28;101036.44409179688;;;11.05;53.67
44531;BME280;30240;47.418;0.700;2023-04-05T08:34:53;101030.09643554688;;;10.03;55.82
44531;BME280;30240;47.418;0.700;2023-04-05T08:37:18;101030.09643554688;;;10.03;55.82
44531;BME280;30240;47.418;0.700;2023-04-05T08:39:43;101035.63842773438;;;10.82;54.46
44531;BME280;30240;47.418;0.700;2023-04-05T08:42:14;101035.29052734375;;;10.4;54.77
44531;BME280;30240;47.418;0.700;2023-04-05T08:44:36;101041.68701171875;;;11.5;52.02
44531;BME280;30240;47.418;0.700;2023-04-05T08:46:59;101046.826171875;;;13.1;49.38
44531;BME280;30240;47.418;0.700;2023-04-05T08:49:24;101046.826171875;;;13.1;49.38
44531;BME280;30240;47.418;0.700;2023-04-05T08:51:48;101042.02880859375;;;14.18;47.18
44531;BME280;30240;47.418;0.700;2023-04-05T08:54:13;101042.22412109375;;;14.39;45.39
44531;BME280;30240;47.418;0.700;2023-04-05T08:56:39;101041.66259765625;;;13.0;48.34
44531;BME280;30240;47.418;0.700;2023-04-05T08:59:05;101038.818359375;;;12.18;48.55
44531;BME280;30240;47.418;0.700;2023-04-05T09:01:30;101037.38403320312;;;11.24;51.21
44531;BME280;30240;47.418;0.700;2023-04-05T09:03:55;101037.38403320312;;;11.24;51.21
44531;BME280;30240;47.418;0.700;2023-04-05T09:06:20;101036.49291992188;;;12.25;50.14
44531;BME280;30240;47.418;0.700;2023-04-05T09:08:43;101035.60791015625;;;12.55;48.33
44531;BME280;30240;47.418;0.700;2023-04-05T09:11:10;101031.54907226562;;;12.14;49.12
44531;BME280;30240;47.418;0.700;2023-04-05T09:13:34;101028.76586914062;;;12.73;50.09
44531;BME280;30240;47.418;0.700;2023-04-05T09:15:59;101028.76586914062;;;12.73;50.09
44531;BME280;30240;47.418;0.700;2023-04-05T09:18:24;101031.23168945312;;;12.93;47.65
44531;BME280;30240;47.418;0.700;2023-04-05T09:20:49;101037.64038085938;;;14.77;44.49
44531;BME280;30240;47.418;0.700;2023-04-05T09:23:14;101032.080078125;;;14.36;43.28
44531;BME280;30240;47.418;0.700;2023-04-05T09:25:39;101034.65576171875;;;13.26;43.49
44531;BME280;30240;47.418;0.700;2023-04-05T09:28:04;101034.65576171875;;;13.26;43.49
44531;BME280;30240;47.418;0.700;2023-04-05T09:30:29;101033.09326171875;;;13.97;41.97
44531;BME280;30240;47.418;0.700;2023-04-05T09:32:54;101029.15649414062;;;14.63;41.06
44531;BME280;30240;47.418;0.700;2023-04-05T09:35:20;101031.48193359375;;;13.65;43.1
44531;BME280;30240;47.418;0.700;2023-04-05T09:37:49;101029.5654296875;;;11.2;48.12
44531;BME280;30240;47.418;0.700;2023-04-05T09:40:09;101029.5654296875;;;11.2;48.12
44531;BME280;30240;47.418;0.700;2023-04-05T09:42:42;101029.0771484375;;;13.11;44.8
44531;BME280;30240;47.418;0.700;2023-04-05T09:44:59;101033.73413085938;;;15.09;42.65
44531;BME280;30240;47.418;0.700;2023-04-05T09:47:25;101024.13330078125;;;14.87;43.37
44531;BME280;30240;47.418;0.700;2023-04-05T09:49:49;101024.20043945312;;;15.23;40.89
44531;BME280;30240;47.418;0.700;2023-04-05T09:52:18;101024.20043945312;;;15.23;40.89
44531;BME280;30240;47.418;0.700;2023-04-05T09:54:40;101025.48217773438;;;13.38;43.77
44531;BME280;30240;47.418;0.700;2023-04-05T09:57:04;101021.533203125;;;14.55;42.34
44531;BME280;30240;47.418;0.700;2023-04-05T09:59:29;101025.97045898438;;;14.43;42.17
44531;BME280;30240;47.418;0.700;2023-04-05T10:01:53;101023.04077148438;;;14.8;40.67
44531;BME280;30240;47.418;0.700;2023-04-05T10:04:19;101023.04077148438;;;14.8;40.67
44531;BME280;30240;47.418;0.700;2023-04-05T10:06:44;101019.6533203125;;;15.4;42.73
44531;BME280;30240;47.418;0.700;2023-04-05T10:09:10;101018.06030273438;;;13.49;43.24
44531;BME280;30240;47.418;0.700;2023-04-05T10:11:35;101010.88256835938;;;14.94;41.1
44531;BME280;30240;47.418;0.700;2023-04-05T10:14:00;101016.26586914062;;;15.22;39.79
44531;BME280;30240;47.418;0.700;2023-04-05T10:16:25;101016.26586914062;;;15.22;39.79
44531;BME280;30240;47.418;0.700;2023-04-05T10:18:50;101007.04956054688;;;16.21;38.49
44531;BME280;30240;47.418;0.700;2023-04-05T10:21:16;101002.8564453125;;;16.57;37.64
44531;BME280;30240;47.418;0.700;2023-04-05T10:23:40;101002.71606445312;;;16.38;38.44
44531;BME280;30240;47.418;0.700;2023-04-05T10:26:09;101001.42211914062;;;15.92;37.73
44531;BME280;30240;47.418;0.700;2023-04-05T10:28:30;101001.42211914062;;;15.92;37.73
44531;BME280;30240;47.418;0.700;2023-04-05T10:30:58;101003.74145507812;;;17.58;36.53
44531;BME280;30240;47.418;0.700;2023-04-05T10:33:21;101003.81469726562;;;17.17;36.55
44531;BME280;30240;47.418;0.700;2023-04-05T10:35:49;101008.00170898438;;;17.06;36.16
44531;BME280;30240;47.418;0.700;2023-04-05T10:38:12;101008.29467773438;;;16.99;37.54
44531;BME280;30240;47.418;0.700;2023-04-05T10:40:34;101004.86450195312;;;16.75;37.18
44531;BME280;30240;47.418;0.700;2023-04-05T10:42:59;101004.86450195312;;;16.75;37.18
44531;BME280;30240;47.418;0.700;2023-04-05T10:45:24;101005.27954101562;;;18.14;35.27
44531;BME280;30240;47.418;0.700;2023-04-05T10:47:53;100999.7802734375;;;17.14;36.54
44531;BME280;30240;47.418;0.700;2023-04-05T10:50:16;100994.1162109375;;;14.57;39.02
44531;BME280;30240;47.418;0.700;2023-04-05T10:52:40;100991.41235351562;;;13.46;41.29
44531;BME280;30240;47.418;0.700;2023-04-05T10:55:04;100991.41235351562;;;13.46;41.29
44531;BME280;30240;47.418;0.700;2023-04-05T10:57:29;100992.3583984375;;;16.06;38.54
44531;BME280;30240;47.418;0.700;2023-04-05T10:59:54;100981.01806640625;;;16.9;38.09
44531;BME280;30240;47.418;0.700;2023-04-05T11:02:19;100978.2958984375;;;15.27;38.88
44531;BME280;30240;47.418;0.700;2023-04-05T11:04:44;100978.8330078125;;;17.31;38.52
44531;BME280;30240;47.418;0.700;2023-04-05T11:07:10;100978.8330078125;;;17.31;38.52
44531;BME280;30240;47.418;0.700;2023-04-05T11:09:34;100971.42944335938;;;18.2;37.78
44531;BME280;30240;47.418;0.700;2023-04-05T11:11:58;100970.23315429688;;;16.82;37.42
44531;BME280;30240;47.418;0.700;2023-04-05T11:14:25;100969.12231445312;;;14.6;40.15